sensor_id;sensor_type;location;lat;lon;timestamp;P1;durP1;ratioP1;P2;durP2;ratioP2
71734;SDS011;59577;52.122;5.406;2022-07-12T00:01:32;0.70;;;0.32;;
71734;SDS011;59577;52.122;5.406;2022-07-12T00:03:58;1.87;;;0.30;;
71734;SDS011;59577;52.122;5.406;2022-07-12T00:06:25;0.63;;;0.20;;
71734;SDS011;59577;52.122;5.406;2022-07-12T00:08:51;1.95;;;0.30;;
71734;SDS011;59577;52.122;5.406;2022-07-12T00:11:18;1.33;;;0.30;;
71734;SDS011;59577;52.122;5.406;2022-07-12T00:13:44;1.45;;;0.30;;
71734;SDS011;59577;52.122;5.406;2022-07-12T00:16:11;0.80;;;0.30;;
71734;SDS011;59577;52.122;5.406;2022-07-12T00:18:38;1.00;;;0.25;;
71734;SDS011;59577;52.122;5.406;2022-07-12T00:21:04;0.52;;;0.40;;
71734;SDS011;59577;52.122;5.406;2022-07-12T00:23:31;0.70;;;0.30;;
71734;SDS011;59577;52.122;5.406;2022-07-12T00:25:57;0.40;;;0.30;;
71734;SDS011;59577;52.122;5.406;2022-07-12T00:28:28;1.57;;;0.30;;
71734;SDS011;59577;52.122;5.406;2022-07-12T00:31:06;1.00;;;0.40;;
71734;SDS011;59577;52.122;5.406;2022-07-12T00:33:37;0.60;;;0.20;;
71734;SDS011;59577;52.122;5.406;2022-07-12T00:36:10;1.60;;;0.30;;
71734;SDS011;59577;52.122;5.406;2022-07-12T00:38:36;0.50;;;0.30;;
71734;SDS011;59577;52.122;5.406;2022-07-12T00:41:03;0.50;;;0.30;;
71734;SDS011;59577;52.122;5.406;2022-07-12T00:43:30;0.45;;;0.20;;
71734;SDS011;59577;52.122;5.406;2022-07-12T00:45:56;0.63;;;0.28;;
71734;SDS011;59577;52.122;5.406;2022-07-12T00:48:23;0.40;;;0.20;;
71734;SDS011;59577;52.122;5.406;2022-07-12T00:50:51;1.58;;;0.30;;
71734;SDS011;59577;52.122;5.406;2022-07-12T00:53:17;0.83;;;0.20;;
71734;SDS011;59577;52.122;5.406;2022-07-12T00:55:55;0.40;;;0.30;;
71734;SDS011;59577;52.122;5.406;2022-07-12T00:58:23;0.75;;;0.20;;
71734;SDS011;59577;52.122;5.406;2022-07-12T01:00:51;0.60;;;0.30;;
71734;SDS011;59577;52.122;5.406;2022-07-12T01:03:18;0.50;;;0.32;;
71734;SDS011;59577;52.122;5.406;2022-07-12T01:05:46;2.20;;;0.30;;
71734;SDS011;59577;52.122;5.406;2022-07-12T01:08:13;2.20;;;0.30;;
71734;SDS011;59577;52.122;5.406;2022-07-12T01:10:41;0.60;;;0.30;;
71734;SDS011;59577;52.122;5.406;2022-07-12T01:13:09;1.85;;;0.30;;
71734;SDS011;59577;52.122;5.406;2022-07-12T01:15:36;2.95;;;0.30;;
71734;SDS011;59577;52.122;5.406;2022-07-12T01:18:03;0.70;;;0.40;;
71734;SDS011;59577;52.122;5.406;2022-07-12T01:20:31;0.90;;;0.50;;
71734;SDS011;59577;52.122;5.406;2022-07-12T01:22:59;4.32;;;0.52;;
71734;SDS011;59577;52.122;5.406;2022-07-12T01:25:26;0.68;;;0.30;;
71734;SDS011;59577;52.122;5.406;2022-07-12T01:27:53;0.75;;;0.52;;
71734;SDS011;59577;52.122;5.406;2022-07-12T01:30:19;2.03;;;0.70;;
71734;SDS011;59577;52.122;5.406;2022-07-12T01:32:46;2.50;;;0.50;;
71734;SDS011;59577;52.122;5.406;2022-07-12T01:35:13;2.30;;;0.55;;
71734;SDS011;59577;52.122;5.406;2022-07-12T01:37:40;0.90;;;0.60;;
71734;SDS011;59577;52.122;5.406;2022-07-12T01:40:09;1.10;;;0.43;;
71734;SDS011;59577;52.122;5.406;2022-07-12T01:42:37;0.60;;;0.40;;
71734;SDS011;59577;52.122;5.406;2022-07-12T01:45:04;1.02;;;0.30;;
71734;SDS011;59577;52.122;5.406;2022-07-12T01:47:32;1.55;;;0.35;;
71734;SDS011;59577;52.122;5.406;2022-07-12T01:49:59;2.13;;;0.40;;
71734;SDS011;59577;52.122;5.406;2022-07-12T01:52:26;4.82;;;0.52;;
71734;SDS011;59577;52.122;5.406;2022-07-12T01:54:54;1.63;;;0.50;;
71734;SDS011;59577;52.122;5.406;2022-07-12T01:57:21;0.80;;;0.30;;
71734;SDS011;59577;52.122;5.406;2022-07-12T01:59:47;0.80;;;0.50;;
71734;SDS011;59577;52.122;5.406;2022-07-12T02:02:14;1.40;;;0.60;;
71734;SDS011;59577;52.122;5.406;2022-07-12T02:04:41;0.60;;;0.35;;
71734;SDS011;59577;52.122;5.406;2022-07-12T02:07:09;0.67;;;0.33;;
71734;SDS011;59577;52.122;5.406;2022-07-12T02:09:35;2.55;;;0.40;;
71734;SDS011;59577;52.122;5.406;2022-07-12T02:12:02;1.55;;;0.30;;
71734;SDS011;59577;52.122;5.406;2022-07-12T02:14:29;0.50;;;0.32;;
71734;SDS011;59577;52.122;5.406;2022-07-12T02:16:55;0.80;;;0.50;;
71734;SDS011;59577;52.122;5.406;2022-07-12T02:19:21;0.63;;;0.40;;
71734;SDS011;59577;52.122;5.406;2022-07-12T02:21:48;0.45;;;0.30;;
71734;SDS011;59577;52.122;5.406;2022-07-12T02:24:15;1.10;;;0.50;;
71734;SDS011;59577;52.122;5.406;2022-07-12T02:26:42;0.63;;;0.30;;
71734;SDS011;59577;52.122;5.406;2022-07-12T02:29:09;0.50;;;0.38;;
71734;SDS011;59577;52.122;5.406;2022-07-12T02:31:37;0.50;;;0.30;;
71734;SDS011;59577;52.122;5.406;2022-07-12T02:34:04;0.88;;;0.32;;
71734;SDS011;59577;52.122;5.406;2022-07-12T02:36:31;0.68;;;0.38;;
71734;SDS011;59577;52.122;5.406;2022-07-12T02:38:58;1.38;;;0.30;;
71734;SDS011;59577;52.122;5.406;2022-07-12T02:41:28;3.35;;;0.38;;
71734;SDS011;59577;52.122;5.406;2022-07-12T02:43:56;2.17;;;0.60;;
71734;SDS011;59577;52.122;5.406;2022-07-12T02:46:22;2.85;;;0.60;;
71734;SDS011;59577;52.122;5.406;2022-07-12T02:48:49;1.77;;;0.60;;
71734;SDS011;59577;52.122;5.406;2022-07-12T02:51:16;0.57;;;0.40;;
71734;SDS011;59577;52.122;5.406;2022-07-12T02:53:42;1.33;;;0.60;;
71734;SDS011;59577;52.122;5.406;2022-07-12T02:56:09;1.27;;;0.60;;
71734;SDS011;59577;52.122;5.406;2022-07-12T02:58:36;0.77;;;0.47;;
71734;SDS011;59577;52.122;5.406;2022-07-12T03:01:03;0.98;;;0.60;;
71734;SDS011;59577;52.122;5.406;2022-07-12T03:03:30;1.42;;;0.50;;
71734;SDS011;59577;52.122;5.406;2022-07-12T03:05:57;1.67;;;0.52;;
71734;SDS011;59577;52.122;5.406;2022-07-12T03:08:24;0.67;;;0.40;;
71734;SDS011;59577;52.122;5.406;2022-07-12T03:10:51;0.93;;;0.40;;
71734;SDS011;59577;52.122;5.406;2022-07-12T03:13:17;0.50;;;0.32;;
71734;SDS011;59577;52.122;5.406;2022-07-12T03:15:44;0.75;;;0.40;;
71734;SDS011;59577;52.122;5.406;2022-07-12T03:18:13;1.67;;;0.40;;
71734;SDS011;59577;52.122;5.406;2022-07-12T03:20:40;2.33;;;0.40;;
71734;SDS011;59577;52.122;5.406;2022-07-12T03:23:07;3.80;;;0.43;;
71734;SDS011;59577;52.122;5.406;2022-07-12T03:25:34;1.00;;;0.60;;
71734;SDS011;59577;52.122;5.406;2022-07-12T03:28:01;0.73;;;0.47;;
71734;SDS011;59577;52.122;5.406;2022-07-12T03:30:27;1.23;;;0.65;;
71734;SDS011;59577;52.122;5.406;2022-07-12T03:32:54;1.00;;;0.53;;
71734;SDS011;59577;52.122;5.406;2022-07-12T03:35:21;3.00;;;0.70;;
71734;SDS011;59577;52.122;5.406;2022-07-12T03:37:49;1.48;;;0.57;;
71734;SDS011;59577;52.122;5.406;2022-07-12T03:40:16;1.00;;;0.50;;
71734;SDS011;59577;52.122;5.406;2022-07-12T03:42:44;2.65;;;0.55;;
71734;SDS011;59577;52.122;5.406;2022-07-12T03:45:12;1.20;;;0.50;;
71734;SDS011;59577;52.122;5.406;2022-07-12T03:47:40;1.40;;;0.80;;
71734;SDS011;59577;52.122;5.406;2022-07-12T03:50:08;3.17;;;0.85;;
71734;SDS011;59577;52.122;5.406;2022-07-12T03:52:37;1.80;;;1.02;;
71734;SDS011;59577;52.122;5.406;2022-07-12T03:55:04;3.47;;;1.45;;
71734;SDS011;59577;52.122;5.406;2022-07-12T03:57:31;1.40;;;0.90;;
71734;SDS011;59577;52.122;5.406;2022-07-12T03:59:58;2.88;;;1.40;;
71734;SDS011;59577;52.122;5.406;2022-07-12T04:02:24;1.88;;;1.30;;
71734;SDS011;59577;52.122;5.406;2022-07-12T04:04:51;3.15;;;1.70;;
71734;SDS011;59577;52.122;5.406;2022-07-12T04:07:18;4.90;;;2.28;;
71734;SDS011;59577;52.122;5.406;2022-07-12T04:09:45;3.30;;;1.60;;
71734;SDS011;59577;52.122;5.406;2022-07-12T04:12:12;2.22;;;1.65;;
71734;SDS011;59577;52.122;5.406;2022-07-12T04:14:38;4.50;;;1.73;;
71734;SDS011;59577;52.122;5.406;2022-07-12T04:17:05;2.50;;;1.40;;
71734;SDS011;59577;52.122;5.406;2022-07-12T04:19:32;2.10;;;0.98;;
71734;SDS011;59577;52.122;5.406;2022-07-12T04:22:00;1.77;;;1.13;;
71734;SDS011;59577;52.122;5.406;2022-07-12T04:24:26;2.42;;;1.40;;
71734;SDS011;59577;52.122;5.406;2022-07-12T04:26:54;2.10;;;1.10;;
71734;SDS011;59577;52.122;5.406;2022-07-12T04:29:21;3.60;;;1.33;;
71734;SDS011;59577;52.122;5.406;2022-07-12T04:31:48;2.75;;;1.48;;
71734;SDS011;59577;52.122;5.406;2022-07-12T04:34:15;1.90;;;1.13;;
71734;SDS011;59577;52.122;5.406;2022-07-12T04:36:44;1.60;;;1.13;;
71734;SDS011;59577;52.122;5.406;2022-07-12T04:39:11;2.45;;;0.98;;
71734;SDS011;59577;52.122;5.406;2022-07-12T04:41:37;2.10;;;1.33;;
71734;SDS011;59577;52.122;5.406;2022-07-12T04:44:06;1.92;;;1.42;;
71734;SDS011;59577;52.122;5.406;2022-07-12T04:46:33;1.47;;;1.23;;
71734;SDS011;59577;52.122;5.406;2022-07-12T04:49:00;2.45;;;1.17;;
71734;SDS011;59577;52.122;5.406;2022-07-12T04:51:27;1.85;;;1.48;;
71734;SDS011;59577;52.122;5.406;2022-07-12T04:53:53;4.30;;;1.63;;
71734;SDS011;59577;52.122;5.406;2022-07-12T04:56:20;3.30;;;1.48;;
71734;SDS011;59577;52.122;5.406;2022-07-12T04:58:46;1.40;;;1.27;;
71734;SDS011;59577;52.122;5.406;2022-07-12T05:01:13;3.17;;;1.52;;
71734;SDS011;59577;52.122;5.406;2022-07-12T05:03:40;2.03;;;1.67;;
71734;SDS011;59577;52.122;5.406;2022-07-12T05:06:07;1.80;;;1.38;;
71734;SDS011;59577;52.122;5.406;2022-07-12T05:08:33;2.50;;;1.55;;
71734;SDS011;59577;52.122;5.406;2022-07-12T05:11:00;1.80;;;1.33;;
71734;SDS011;59577;52.122;5.406;2022-07-12T05:13:27;2.55;;;1.67;;
71734;SDS011;59577;52.122;5.406;2022-07-12T05:15:54;2.47;;;1.80;;
71734;SDS011;59577;52.122;5.406;2022-07-12T05:18:21;2.00;;;1.80;;
71734;SDS011;59577;52.122;5.406;2022-07-12T05:20:48;1.67;;;1.50;;
71734;SDS011;59577;52.122;5.406;2022-07-12T05:23:17;1.70;;;1.57;;
71734;SDS011;59577;52.122;5.406;2022-07-12T05:25:44;2.00;;;1.80;;
71734;SDS011;59577;52.122;5.406;2022-07-12T05:28:13;1.80;;;1.52;;
71734;SDS011;59577;52.122;5.406;2022-07-12T05:30:42;1.63;;;1.52;;
71734;SDS011;59577;52.122;5.406;2022-07-12T05:33:10;2.00;;;1.80;;
71734;SDS011;59577;52.122;5.406;2022-07-12T05:35:38;2.40;;;1.90;;
71734;SDS011;59577;52.122;5.406;2022-07-12T05:38:05;2.80;;;2.50;;
71734;SDS011;59577;52.122;5.406;2022-07-12T05:40:31;3.17;;;2.40;;
71734;SDS011;59577;52.122;5.406;2022-07-12T05:42:58;5.07;;;2.63;;
71734;SDS011;59577;52.122;5.406;2022-07-12T05:45:25;3.85;;;2.58;;
71734;SDS011;59577;52.122;5.406;2022-07-12T05:47:51;3.17;;;2.80;;
71734;SDS011;59577;52.122;5.406;2022-07-12T05:50:18;3.45;;;3.13;;
71734;SDS011;59577;52.122;5.406;2022-07-12T05:52:45;3.00;;;2.80;;
71734;SDS011;59577;52.122;5.406;2022-07-12T05:55:30;3.83;;;3.42;;
71734;SDS011;59577;52.122;5.406;2022-07-12T05:57:56;3.88;;;3.58;;
71734;SDS011;59577;52.122;5.406;2022-07-12T06:00:23;3.73;;;3.43;;
71734;SDS011;59577;52.122;5.406;2022-07-12T06:02:49;4.13;;;3.28;;
71734;SDS011;59577;52.122;5.406;2022-07-12T06:05:17;6.00;;;3.15;;
71734;SDS011;59577;52.122;5.406;2022-07-12T06:07:43;4.15;;;2.97;;
71734;SDS011;59577;52.122;5.406;2022-07-12T06:10:10;3.13;;;2.90;;
71734;SDS011;59577;52.122;5.406;2022-07-12T06:12:36;3.27;;;2.97;;
71734;SDS011;59577;52.122;5.406;2022-07-12T06:15:04;3.67;;;3.15;;
71734;SDS011;59577;52.122;5.406;2022-07-12T06:17:32;3.28;;;2.97;;
71734;SDS011;59577;52.122;5.406;2022-07-12T06:20:00;3.33;;;2.90;;
71734;SDS011;59577;52.122;5.406;2022-07-12T06:22:27;2.70;;;2.50;;
71734;SDS011;59577;52.122;5.406;2022-07-12T06:24:53;5.90;;;3.10;;
71734;SDS011;59577;52.122;5.406;2022-07-12T06:27:19;3.25;;;3.05;;
71734;SDS011;59577;52.122;5.406;2022-07-12T06:29:46;5.07;;;3.10;;
71734;SDS011;59577;52.122;5.406;2022-07-12T06:32:15;3.28;;;2.97;;
71734;SDS011;59577;52.122;5.406;2022-07-12T06:34:42;3.45;;;2.78;;
71734;SDS011;59577;52.122;5.406;2022-07-12T06:37:08;3.37;;;3.17;;
71734;SDS011;59577;52.122;5.406;2022-07-12T06:39:35;3.97;;;3.10;;
71734;SDS011;59577;52.122;5.406;2022-07-12T06:42:02;3.63;;;3.20;;
71734;SDS011;59577;52.122;5.406;2022-07-12T06:44:30;3.97;;;3.25;;
71734;SDS011;59577;52.122;5.406;2022-07-12T06:46:57;3.33;;;3.13;;
71734;SDS011;59577;52.122;5.406;2022-07-12T06:49:25;3.13;;;2.57;;
71734;SDS011;59577;52.122;5.406;2022-07-12T06:51:51;3.17;;;2.90;;
71734;SDS011;59577;52.122;5.406;2022-07-12T06:54:18;4.50;;;3.50;;
71734;SDS011;59577;52.122;5.406;2022-07-12T06:56:44;3.75;;;3.00;;
71734;SDS011;59577;52.122;5.406;2022-07-12T06:59:11;3.20;;;2.95;;
71734;SDS011;59577;52.122;5.406;2022-07-12T07:01:42;3.20;;;2.90;;
71734;SDS011;59577;52.122;5.406;2022-07-12T07:04:09;3.42;;;3.22;;
71734;SDS011;59577;52.122;5.406;2022-07-12T07:06:36;3.03;;;2.83;;
71734;SDS011;59577;52.122;5.406;2022-07-12T07:09:03;5.45;;;3.10;;
71734;SDS011;59577;52.122;5.406;2022-07-12T07:11:34;3.28;;;2.97;;
71734;SDS011;59577;52.122;5.406;2022-07-12T07:14:01;3.00;;;2.80;;
71734;SDS011;59577;52.122;5.406;2022-07-12T07:16:28;3.28;;;2.85;;
71734;SDS011;59577;52.122;5.406;2022-07-12T07:18:54;2.80;;;2.53;;
71734;SDS011;59577;52.122;5.406;2022-07-12T07:21:21;2.88;;;2.67;;
71734;SDS011;59577;52.122;5.406;2022-07-12T07:23:48;3.05;;;2.78;;
71734;SDS011;59577;52.122;5.406;2022-07-12T07:26:14;2.70;;;2.50;;
71734;SDS011;59577;52.122;5.406;2022-07-12T07:28:41;2.80;;;2.22;;
71734;SDS011;59577;52.122;5.406;2022-07-12T07:31:26;2.55;;;2.17;;
71734;SDS011;59577;52.122;5.406;2022-07-12T07:33:53;1.92;;;1.83;;
71734;SDS011;59577;52.122;5.406;2022-07-12T07:36:19;4.22;;;1.90;;
71734;SDS011;59577;52.122;5.406;2022-07-12T07:38:46;3.77;;;1.70;;
71734;SDS011;59577;52.122;5.406;2022-07-12T07:41:12;1.63;;;1.52;;
71734;SDS011;59577;52.122;5.406;2022-07-12T07:43:39;1.90;;;1.80;;
71734;SDS011;59577;52.122;5.406;2022-07-12T07:46:05;2.20;;;2.08;;
71734;SDS011;59577;52.122;5.406;2022-07-12T07:48:32;1.83;;;1.73;;
71734;SDS011;59577;52.122;5.406;2022-07-12T07:50:58;1.70;;;1.53;;
71734;SDS011;59577;52.122;5.406;2022-07-12T07:53:25;2.00;;;1.80;;
71734;SDS011;59577;52.122;5.406;2022-07-12T07:55:52;5.65;;;1.80;;
71734;SDS011;59577;52.122;5.406;2022-07-12T07:58:18;2.15;;;1.95;;
71734;SDS011;59577;52.122;5.406;2022-07-12T08:00:49;1.80;;;1.70;;
71734;SDS011;59577;52.122;5.406;2022-07-12T08:03:17;4.70;;;1.87;;
71734;SDS011;59577;52.122;5.406;2022-07-12T08:05:44;2.33;;;2.13;;
71734;SDS011;59577;52.122;5.406;2022-07-12T08:08:10;2.88;;;2.00;;
71734;SDS011;59577;52.122;5.406;2022-07-12T08:10:37;2.50;;;2.15;;
71734;SDS011;59577;52.122;5.406;2022-07-12T08:13:04;6.03;;;2.00;;
71734;SDS011;59577;52.122;5.406;2022-07-12T08:15:31;2.70;;;2.17;;
71734;SDS011;59577;52.122;5.406;2022-07-12T08:17:57;3.30;;;1.95;;
71734;SDS011;59577;52.122;5.406;2022-07-12T08:20:26;2.47;;;2.10;;
71734;SDS011;59577;52.122;5.406;2022-07-12T08:23:13;3.20;;;2.10;;
71734;SDS011;59577;52.122;5.406;2022-07-12T08:25:40;3.30;;;2.88;;
71734;SDS011;59577;52.122;5.406;2022-07-12T08:28:06;2.40;;;2.20;;
71734;SDS011;59577;52.122;5.406;2022-07-12T08:30:33;2.60;;;2.47;;
71734;SDS011;59577;52.122;5.406;2022-07-12T08:33:05;2.97;;;2.78;;
71734;SDS011;59577;52.122;5.406;2022-07-12T08:35:31;3.13;;;2.83;;
71734;SDS011;59577;52.122;5.406;2022-07-12T08:37:58;2.20;;;1.98;;
71734;SDS011;59577;52.122;5.406;2022-07-12T08:40:24;2.90;;;2.70;;
71734;SDS011;59577;52.122;5.406;2022-07-12T08:42:51;2.35;;;2.17;;
71734;SDS011;59577;52.122;5.406;2022-07-12T08:45:17;2.78;;;2.58;;
71734;SDS011;59577;52.122;5.406;2022-07-12T08:47:44;2.25;;;1.85;;
71734;SDS011;59577;52.122;5.406;2022-07-12T08:52:48;3.87;;;2.87;;
71734;SDS011;59577;52.122;5.406;2022-07-12T08:57:59;3.42;;;2.67;;
71734;SDS011;59577;52.122;5.406;2022-07-12T09:00:28;2.88;;;2.67;;
71734;SDS011;59577;52.122;5.406;2022-07-12T09:02:59;4.30;;;2.92;;
71734;SDS011;59577;52.122;5.406;2022-07-12T09:05:29;1.87;;;1.70;;
71734;SDS011;59577;52.122;5.406;2022-07-12T09:08:06;1.95;;;1.85;;
71734;SDS011;59577;52.122;5.406;2022-07-12T09:10:35;2.80;;;2.60;;
71734;SDS011;59577;52.122;5.406;2022-07-12T09:16:30;3.40;;;3.10;;
71734;SDS011;59577;52.122;5.406;2022-07-12T09:19:13;3.03;;;2.83;;
71734;SDS011;59577;52.122;5.406;2022-07-12T09:21:47;3.10;;;2.58;;
71734;SDS011;59577;52.122;5.406;2022-07-12T09:24:18;2.67;;;2.55;;
71734;SDS011;59577;52.122;5.406;2022-07-12T09:26:47;3.15;;;2.85;;
71734;SDS011;59577;52.122;5.406;2022-07-12T09:29:13;3.13;;;2.50;;
71734;SDS011;59577;52.122;5.406;2022-07-12T09:31:41;2.73;;;2.50;;
71734;SDS011;59577;52.122;5.406;2022-07-12T09:34:31;2.65;;;2.53;;
71734;SDS011;59577;52.122;5.406;2022-07-12T09:37:16;2.75;;;2.55;;
71734;SDS011;59577;52.122;5.406;2022-07-12T09:39:43;2.95;;;2.75;;
71734;SDS011;59577;52.122;5.406;2022-07-12T09:42:10;2.00;;;1.90;;
71734;SDS011;59577;52.122;5.406;2022-07-12T09:44:37;3.77;;;3.57;;
71734;SDS011;59577;52.122;5.406;2022-07-12T09:47:08;3.53;;;3.15;;
71734;SDS011;59577;52.122;5.406;2022-07-12T09:49:39;3.00;;;2.80;;
71734;SDS011;59577;52.122;5.406;2022-07-12T09:52:09;3.00;;;2.55;;
71734;SDS011;59577;52.122;5.406;2022-07-12T09:54:39;2.55;;;2.40;;
71734;SDS011;59577;52.122;5.406;2022-07-12T09:57:20;3.23;;;2.80;;
71734;SDS011;59577;52.122;5.406;2022-07-12T09:59:53;3.65;;;2.80;;
71734;SDS011;59577;52.122;5.406;2022-07-12T10:02:21;4.82;;;3.00;;
71734;SDS011;59577;52.122;5.406;2022-07-12T10:04:48;2.53;;;2.35;;
71734;SDS011;59577;52.122;5.406;2022-07-12T10:07:15;3.63;;;3.42;;
71734;SDS011;59577;52.122;5.406;2022-07-12T10:09:43;2.40;;;2.10;;
71734;SDS011;59577;52.122;5.406;2022-07-12T10:12:14;2.65;;;2.45;;
71734;SDS011;59577;52.122;5.406;2022-07-12T10:14:43;2.70;;;2.50;;
71734;SDS011;59577;52.122;5.406;2022-07-12T10:17:10;3.40;;;3.10;;
71734;SDS011;59577;52.122;5.406;2022-07-12T10:19:37;3.38;;;3.08;;
71734;SDS011;59577;52.122;5.406;2022-07-12T10:22:05;3.20;;;3.00;;
71734;SDS011;59577;52.122;5.406;2022-07-12T10:27:00;1.60;;;1.50;;
71734;SDS011;59577;52.122;5.406;2022-07-12T10:29:47;1.20;;;1.10;;
71734;SDS011;59577;52.122;5.406;2022-07-12T10:32:24;2.65;;;2.45;;
71734;SDS011;59577;52.122;5.406;2022-07-12T10:34:59;2.00;;;1.90;;
71734;SDS011;59577;52.122;5.406;2022-07-12T10:37:29;2.92;;;1.80;;
71734;SDS011;59577;52.122;5.406;2022-07-12T10:40:14;1.77;;;1.67;;
71734;SDS011;59577;52.122;5.406;2022-07-12T10:45:31;1.60;;;1.42;;
71734;SDS011;59577;52.122;5.406;2022-07-12T10:48:00;1.43;;;1.33;;
71734;SDS011;59577;52.122;5.406;2022-07-12T10:58:57;2.03;;;1.90;;
71734;SDS011;59577;52.122;5.406;2022-07-12T11:01:25;2.40;;;2.13;;
71734;SDS011;59577;52.122;5.406;2022-07-12T11:04:04;2.40;;;1.40;;
71734;SDS011;59577;52.122;5.406;2022-07-12T11:06:34;2.72;;;1.50;;
71734;SDS011;59577;52.122;5.406;2022-07-12T11:09:09;1.92;;;1.77;;
71734;SDS011;59577;52.122;5.406;2022-07-12T11:11:43;3.67;;;1.42;;
71734;SDS011;59577;52.122;5.406;2022-07-12T11:14:12;2.87;;;1.60;;
71734;SDS011;59577;52.122;5.406;2022-07-12T11:16:53;2.25;;;2.15;;
71734;SDS011;59577;52.122;5.406;2022-07-12T11:19:22;2.40;;;2.20;;
71734;SDS011;59577;52.122;5.406;2022-07-12T11:21:50;1.65;;;1.55;;
71734;SDS011;59577;52.122;5.406;2022-07-12T11:24:22;3.20;;;2.03;;
71734;SDS011;59577;52.122;5.406;2022-07-12T11:26:50;2.47;;;2.27;;
71734;SDS011;59577;52.122;5.406;2022-07-12T11:29:19;2.10;;;1.73;;
71734;SDS011;59577;52.122;5.406;2022-07-12T11:31:46;5.93;;;2.10;;
71734;SDS011;59577;52.122;5.406;2022-07-12T11:34:23;3.35;;;1.80;;
71734;SDS011;59577;52.122;5.406;2022-07-12T11:36:50;4.28;;;1.65;;
71734;SDS011;59577;52.122;5.406;2022-07-12T11:39:35;6.30;;;1.90;;
71734;SDS011;59577;52.122;5.406;2022-07-12T11:42:06;2.28;;;1.80;;
71734;SDS011;59577;52.122;5.406;2022-07-12T11:44:49;4.05;;;2.20;;
71734;SDS011;59577;52.122;5.406;2022-07-12T11:47:17;2.28;;;2.08;;
71734;SDS011;59577;52.122;5.406;2022-07-12T11:49:54;1.67;;;1.55;;
71734;SDS011;59577;52.122;5.406;2022-07-12T11:52:24;1.43;;;1.33;;
71734;SDS011;59577;52.122;5.406;2022-07-12T11:54:52;2.05;;;1.85;;
71734;SDS011;59577;52.122;5.406;2022-07-12T11:57:20;2.35;;;1.65;;
71734;SDS011;59577;52.122;5.406;2022-07-12T11:59:47;2.50;;;1.50;;
71734;SDS011;59577;52.122;5.406;2022-07-12T12:02:14;1.98;;;1.20;;
71734;SDS011;59577;52.122;5.406;2022-07-12T12:04:47;1.60;;;1.00;;
71734;SDS011;59577;52.122;5.406;2022-07-12T12:07:16;2.05;;;1.00;;
71734;SDS011;59577;52.122;5.406;2022-07-12T12:10:00;1.60;;;1.10;;
71734;SDS011;59577;52.122;5.406;2022-07-12T12:12:49;3.92;;;1.20;;
71734;SDS011;59577;52.122;5.406;2022-07-12T12:17:55;1.30;;;1.20;;
71734;SDS011;59577;52.122;5.406;2022-07-12T12:20:35;1.38;;;1.27;;
71734;SDS011;59577;52.122;5.406;2022-07-12T12:23:06;1.38;;;1.30;;
71734;SDS011;59577;52.122;5.406;2022-07-12T12:25:41;1.90;;;1.10;;
71734;SDS011;59577;52.122;5.406;2022-07-12T12:28:08;1.95;;;1.20;;
71734;SDS011;59577;52.122;5.406;2022-07-12T12:30:49;1.83;;;1.10;;
71734;SDS011;59577;52.122;5.406;2022-07-12T12:33:36;1.40;;;0.98;;
71734;SDS011;59577;52.122;5.406;2022-07-12T12:36:13;1.55;;;1.40;;
71734;SDS011;59577;52.122;5.406;2022-07-12T12:38:44;1.20;;;1.10;;
71734;SDS011;59577;52.122;5.406;2022-07-12T12:41:11;3.65;;;1.35;;
71734;SDS011;59577;52.122;5.406;2022-07-12T12:43:39;2.20;;;1.00;;
71734;SDS011;59577;52.122;5.406;2022-07-12T12:46:08;1.15;;;1.05;;
71734;SDS011;59577;52.122;5.406;2022-07-12T12:48:35;4.80;;;1.42;;
71734;SDS011;59577;52.122;5.406;2022-07-12T12:53:32;1.92;;;1.02;;
71734;SDS011;59577;52.122;5.406;2022-07-12T12:55:59;2.10;;;1.00;;
71734;SDS011;59577;52.122;5.406;2022-07-12T12:58:26;2.38;;;1.15;;
71734;SDS011;59577;52.122;5.406;2022-07-12T13:00:53;1.00;;;1.00;;
71734;SDS011;59577;52.122;5.406;2022-07-12T13:03:21;1.13;;;1.00;;
71734;SDS011;59577;52.122;5.406;2022-07-12T13:05:50;2.30;;;1.08;;
71734;SDS011;59577;52.122;5.406;2022-07-12T13:08:17;1.63;;;1.00;;
71734;SDS011;59577;52.122;5.406;2022-07-12T13:10:45;1.30;;;1.20;;
71734;SDS011;59577;52.122;5.406;2022-07-12T13:13:12;1.25;;;1.00;;
71734;SDS011;59577;52.122;5.406;2022-07-12T13:15:44;2.38;;;1.00;;
71734;SDS011;59577;52.122;5.406;2022-07-12T13:18:11;2.40;;;1.10;;
71734;SDS011;59577;52.122;5.406;2022-07-12T13:20:37;1.70;;;1.60;;
71734;SDS011;59577;52.122;5.406;2022-07-12T13:23:04;2.13;;;1.80;;
71734;SDS011;59577;52.122;5.406;2022-07-12T13:25:30;2.75;;;1.40;;
71734;SDS011;59577;52.122;5.406;2022-07-12T13:27:57;1.58;;;1.10;;
71734;SDS011;59577;52.122;5.406;2022-07-12T13:30:24;1.40;;;1.30;;
71734;SDS011;59577;52.122;5.406;2022-07-12T13:32:51;3.30;;;1.50;;
71734;SDS011;59577;52.122;5.406;2022-07-12T13:35:18;1.50;;;1.08;;
71734;SDS011;59577;52.122;5.406;2022-07-12T13:37:44;1.48;;;1.38;;
71734;SDS011;59577;52.122;5.406;2022-07-12T13:40:16;3.25;;;1.20;;
71734;SDS011;59577;52.122;5.406;2022-07-12T13:42:50;2.30;;;1.10;;
71734;SDS011;59577;52.122;5.406;2022-07-12T13:45:19;2.73;;;1.07;;
71734;SDS011;59577;52.122;5.406;2022-07-12T13:47:47;1.17;;;1.05;;
71734;SDS011;59577;52.122;5.406;2022-07-12T13:50:14;1.10;;;1.00;;
71734;SDS011;59577;52.122;5.406;2022-07-12T13:52:42;1.60;;;1.00;;
71734;SDS011;59577;52.122;5.406;2022-07-12T13:55:10;1.92;;;1.30;;
71734;SDS011;59577;52.122;5.406;2022-07-12T13:57:39;1.40;;;1.30;;
71734;SDS011;59577;52.122;5.406;2022-07-12T14:00:10;2.55;;;1.20;;
71734;SDS011;59577;52.122;5.406;2022-07-12T14:02:40;1.77;;;1.27;;
71734;SDS011;59577;52.122;5.406;2022-07-12T14:05:08;4.95;;;1.10;;
71734;SDS011;59577;52.122;5.406;2022-07-12T14:07:37;3.80;;;1.48;;
71734;SDS011;59577;52.122;5.406;2022-07-12T14:10:05;2.13;;;0.90;;
71734;SDS011;59577;52.122;5.406;2022-07-12T14:12:33;1.27;;;0.80;;
71734;SDS011;59577;52.122;5.406;2022-07-12T14:15:00;1.23;;;1.13;;
71734;SDS011;59577;52.122;5.406;2022-07-12T14:17:44;1.15;;;0.90;;
71734;SDS011;59577;52.122;5.406;2022-07-12T14:20:16;1.77;;;1.15;;
71734;SDS011;59577;52.122;5.406;2022-07-12T14:22:44;3.37;;;1.10;;
71734;SDS011;59577;52.122;5.406;2022-07-12T14:25:11;1.45;;;0.90;;
71734;SDS011;59577;52.122;5.406;2022-07-12T14:27:38;2.55;;;1.27;;
71734;SDS011;59577;52.122;5.406;2022-07-12T14:30:06;3.30;;;1.08;;
71734;SDS011;59577;52.122;5.406;2022-07-12T14:32:36;4.28;;;1.30;;
71734;SDS011;59577;52.122;5.406;2022-07-12T14:35:04;0.97;;;0.90;;
71734;SDS011;59577;52.122;5.406;2022-07-12T14:37:32;1.20;;;1.02;;
71734;SDS011;59577;52.122;5.406;2022-07-12T14:40:00;1.48;;;1.33;;
71734;SDS011;59577;52.122;5.406;2022-07-12T14:42:27;5.25;;;1.20;;
71734;SDS011;59577;52.122;5.406;2022-07-12T14:44:54;1.45;;;1.35;;
71734;SDS011;59577;52.122;5.406;2022-07-12T14:47:21;1.20;;;1.10;;
71734;SDS011;59577;52.122;5.406;2022-07-12T14:49:49;4.03;;;1.17;;
71734;SDS011;59577;52.122;5.406;2022-07-12T14:52:16;1.55;;;1.27;;
71734;SDS011;59577;52.122;5.406;2022-07-12T14:54:42;3.30;;;1.23;;
71734;SDS011;59577;52.122;5.406;2022-07-12T14:57:10;20.00;;;2.08;;
71734;SDS011;59577;52.122;5.406;2022-07-12T14:59:37;1.30;;;1.20;;
71734;SDS011;59577;52.122;5.406;2022-07-12T15:02:03;1.88;;;1.00;;
71734;SDS011;59577;52.122;5.406;2022-07-12T15:04:30;1.63;;;1.20;;
71734;SDS011;59577;52.122;5.406;2022-07-12T15:06:57;1.27;;;1.17;;
71734;SDS011;59577;52.122;5.406;2022-07-12T15:09:23;2.22;;;1.35;;
71734;SDS011;59577;52.122;5.406;2022-07-12T15:11:50;1.20;;;1.10;;
71734;SDS011;59577;52.122;5.406;2022-07-12T15:14:17;1.50;;;1.40;;
71734;SDS011;59577;52.122;5.406;2022-07-12T15:16:43;1.60;;;1.50;;
71734;SDS011;59577;52.122;5.406;2022-07-12T15:19:10;1.60;;;1.50;;
71734;SDS011;59577;52.122;5.406;2022-07-12T15:21:36;1.38;;;1.27;;
71734;SDS011;59577;52.122;5.406;2022-07-12T15:24:03;2.33;;;1.53;;